Time,TemperatureF,DewpointF,PressureIn,WindDirection,WindDirectionDegrees,WindSpeedMPH,WindSpeedGustMPH,Humidity,HourlyPrecipIn,Conditions,Clouds,dailyrainin,SoftwareType,DateUTC
2013-04-06 00:04:00,44.0,20.0,30.07,NE,44,1.0,2.0,38,0.00,,,0.00,,2013-04-06 04:04:00,
2013-04-06 00:14:00,44.0,20.0,30.07,NE,44,1.0,2.0,38,0.00,,,0.00,,2013-04-06 04:14:00,
2013-04-06 00:23:00,44.0,19.0,30.07,North,360,3.0,8.0,36,0.00,,,0.00,,2013-04-06 04:23:00,
2013-04-06 00:33:00,44.0,21.0,30.08,North,355,2.0,9.0,39,0.00,,,0.00,,2013-04-06 04:33:00,
2013-04-06 00:42:00,44.0,21.0,30.08,North,355,2.0,9.0,39,0.00,,,0.00,,2013-04-06 04:42:00,
2013-04-06 00:53:00,43.0,21.0,30.09,NNW,348,1.0,8.0,41,0.00,,,0.00,,2013-04-06 04:53:00,
2013-04-06 01:02:00,42.0,20.0,30.09,North,360,3.0,9.0,41,0.00,,,0.00,,2013-04-06 05:02:00,
2013-04-06 01:13:00,42.0,20.0,30.09,North,360,3.0,9.0,41,0.00,,,0.00,,2013-04-06 05:13:00,
2013-04-06 01:22:00,42.0,20.0,30.10,North,10,5.0,8.0,41,0.00,,,0.00,,2013-04-06 05:22:00,
2013-04-06 01:32:00,42.0,21.0,30.11,North,5,4.0,13.0,42,0.00,,,0.00,,2013-04-06 05:32:00,
2013-04-06 01:43:00,42.0,21.0,30.11,North,5,4.0,13.0,42,0.00,,,0.00,,2013-04-06 05:43:00,
2013-04-06 01:52:00,41.0,20.0,30.11,North,355,2.0,9.0,43,0.00,,,0.00,,2013-04-06 05:52:00,
2013-04-06 02:03:00,41.0,21.0,30.12,NNW,336,4.0,10.0,44,0.00,,,0.00,,2013-04-06 06:03:00,
2013-04-06 02:12:00,41.0,21.0,30.12,NNW,336,4.0,10.0,44,0.00,,,0.00,,2013-04-06 06:12:00,
2013-04-06 02:22:00,40.0,21.0,30.13,NNW,347,2.0,7.0,46,0.00,,,0.00,,2013-04-06 06:22:00,
2013-04-06 02:33:00,40.0,21.0,30.14,North,5,6.0,12.0,47,0.00,,,0.00,,2013-04-06 06:33:00,
2013-04-06 02:42:00,40.0,21.0,30.14,North,5,6.0,12.0,47,0.00,,,0.00,,2013-04-06 06:42:00,
2013-04-06 02:53:00,39.0,22.0,30.14,North,11,1.0,5.0,50,0.00,,,0.00,,2013-04-06 06:53:00,
2013-04-06 03:03:00,39.0,22.0,30.14,NNE,21,0.0,5.0,50,0.00,,,0.00,,2013-04-06 07:03:00,
2013-04-06 03:12:00,39.0,22.0,30.14,NNE,21,0.0,5.0,50,0.00,,,0.00,,2013-04-06 07:12:00,
2013-04-06 03:22:00,38.0,22.0,30.15,North,355,1.0,4.0,51,0.00,,,0.00,,2013-04-06 07:22:00,
2013-04-06 03:33:00,38.0,22.0,30.16,North,360,3.0,8.0,52,0.00,,,0.00,,2013-04-06 07:33:00,
2013-04-06 03:43:00,38.0,22.0,30.16,North,360,3.0,8.0,52,0.00,,,0.00,,2013-04-06 07:43:00,
2013-04-06 03:53:00,37.0,23.0,30.16,NNW,327,0.0,2.0,56,0.00,,,0.00,,2013-04-06 07:53:00,
2013-04-06 04:02:00,37.0,23.0,30.16,NW,322,0.0,2.0,56,0.00,,,0.00,,2013-04-06 08:02:00,
2013-04-06 04:13:00,37.0,23.0,30.16,NW,322,0.0,2.0,56,0.00,,,0.00,,2013-04-06 08:13:00,
2013-04-06 04:22:00,36.0,23.0,30.17,NNE,16,0.0,0.0,58,0.00,,,0.00,,2013-04-06 08:22:00,
2013-04-06 04:32:00,36.0,23.0,30.17,North,355,0.0,0.0,59,0.00,,,0.00,,2013-04-06 08:32:00,
2013-04-06 04:42:00,36.0,23.0,30.17,North,355,0.0,0.0,59,0.00,,,0.00,,2013-04-06 08:42:00,
2013-04-06 04:52:00,35.0,23.0,30.17,North,355,0.0,0.0,61,0.00,,,0.00,,2013-04-06 08:52:00,
2013-04-06 05:02:00,34.0,23.0,30.17,North,355,0.0,0.0,63,0.00,,,0.00,,2013-04-06 09:02:00,
2013-04-06 05:13:00,34.0,23.0,30.17,North,355,0.0,0.0,63,0.00,,,0.00,,2013-04-06 09:13:00,
2013-04-06 05:22:00,33.0,23.0,30.17,North,355,0.0,2.0,65,0.00,,,0.00,,2013-04-06 09:22:00,
2013-04-06 05:33:00,32.0,22.0,30.19,North,355,0.0,0.0,66,0.00,,,0.00,,2013-04-06 09:33:00,
2013-04-06 05:43:00,32.0,22.0,30.19,North,355,0.0,0.0,66,0.00,,,0.00,,2013-04-06 09:43:00,
2013-04-06 05:53:00,32.0,22.0,30.19,North,355,0.0,1.0,67,0.00,,,0.00,,2013-04-06 09:53:00,
2013-04-06 06:03:00,32.0,22.0,30.20,North,355,0.0,0.0,67,0.00,,,0.00,,2013-04-06 10:03:00,
2013-04-06 06:13:00,32.0,22.0,30.20,North,355,0.0,0.0,67,0.00,,,0.00,,2013-04-06 10:13:00,
2013-04-06 06:23:00,32.0,22.0,30.20,NNW,341,0.0,0.0,67,0.00,,,0.00,,2013-04-06 10:23:00,
2013-04-06 06:33:00,32.0,22.0,30.22,NNW,341,0.0,0.0,66,0.00,,,0.00,,2013-04-06 10:33:00,
2013-04-06 06:42:00,32.0,22.0,30.22,NNW,341,0.0,0.0,66,0.00,,,0.00,,2013-04-06 10:42:00,
2013-04-06 06:53:00,32.0,22.0,30.23,NNW,345,0.0,0.0,67,0.00,,,0.00,,2013-04-06 10:53:00,
2013-04-06 07:03:00,32.0,22.0,30.24,NNW,346,0.0,0.0,67,0.00,,,0.00,,2013-04-06 11:03:00,
2013-04-06 07:13:00,32.0,22.0,30.24,NNW,346,0.0,0.0,67,0.00,,,0.00,,2013-04-06 11:13:00,
2013-04-06 07:23:00,31.0,22.0,30.25,NNE,13,0.0,1.0,68,0.00,,,0.00,,2013-04-06 11:23:00,
2013-04-06 07:33:00,31.0,22.0,30.26,NNE,30,0.0,1.0,69,0.00,,,0.00,,2013-04-06 11:33:00,
2013-04-06 07:43:00,31.0,22.0,30.26,NNE,30,0.0,1.0,69,0.00,,,0.00,,2013-04-06 11:43:00,
2013-04-06 07:53:00,34.0,24.0,30.26,NNE,19,0.0,1.0,67,0.00,,,0.00,,2013-04-06 11:53:00,
2013-04-06 08:02:00,34.0,24.0,30.27,WNW,286,0.0,0.0,67,0.00,,,0.00,,2013-04-06 12:02:00,
2013-04-06 08:22:00,36.0,24.0,30.29,WNW,286,0.0,0.0,62,0.00,,,0.00,,2013-04-06 12:22:00,
2013-04-06 08:33:00,37.0,25.0,30.29,West,259,0.0,4.0,62,0.00,,,0.00,,2013-04-06 12:33:00,
2013-04-06 08:44:00,37.0,25.0,30.29,West,259,0.0,4.0,62,0.00,,,0.00,,2013-04-06 12:44:00,
2013-04-06 08:53:00,38.0,24.0,30.30,North,355,3.0,6.0,56,0.00,,,0.00,,2013-04-06 12:53:00,
2013-04-06 09:03:00,39.0,25.0,30.30,NNE,20,1.0,8.0,57,0.00,,,0.00,,2013-04-06 13:03:00,
2013-04-06 09:13:00,39.0,25.0,30.30,NNE,20,1.0,8.0,57,0.00,,,0.00,,2013-04-06 13:13:00,
2013-04-06 09:24:00,40.0,24.0,30.31,NNW,335,2.0,5.0,53,0.00,,,0.00,,2013-04-06 13:24:00,
2013-04-06 09:32:00,41.0,25.0,30.31,NNW,348,1.0,7.0,53,0.00,,,0.00,,2013-04-06 13:32:00,
2013-04-06 09:43:00,41.0,25.0,30.31,NNW,348,1.0,7.0,53,0.00,,,0.00,,2013-04-06 13:43:00,
2013-04-06 09:54:00,41.0,24.0,30.32,NE,53,1.0,6.0,50,0.00,,,0.00,,2013-04-06 13:54:00,
2013-04-06 10:04:00,41.0,23.0,30.31,NE,49,1.0,6.0,49,0.00,,,0.00,,2013-04-06 14:04:00,
2013-04-06 10:12:00,41.0,23.0,30.31,NE,49,1.0,6.0,49,0.00,,,0.00,,2013-04-06 14:12:00,
2013-04-06 10:22:00,42.0,23.0,30.31,South,178,0.0,6.0,47,0.00,,,0.00,,2013-04-06 14:22:00,
2013-04-06 10:33:00,42.0,23.0,30.31,NE,48,2.0,5.0,47,0.00,,,0.00,,2013-04-06 14:33:00,
2013-04-06 10:43:00,42.0,23.0,30.31,NE,48,2.0,5.0,47,0.00,,,0.00,,2013-04-06 14:43:00,
2013-04-06 10:53:00,43.0,24.0,30.32,ENE,57,1.0,6.0,47,0.00,,,0.00,,2013-04-06 14:53:00,
2013-04-06 11:02:00,44.0,28.0,30.32,ESE,111,0.0,6.0,52,0.00,,,0.00,,2013-04-06 15:02:00,
2013-04-06 11:12:00,44.0,28.0,30.32,ESE,111,0.0,6.0,52,0.00,,,0.00,,2013-04-06 15:12:00,
2013-04-06 11:23:00,44.0,23.0,30.32,NW,312,2.0,7.0,43,0.00,,,0.00,,2013-04-06 15:23:00,
2013-04-06 11:33:00,45.0,24.0,30.31,North,11,1.0,4.0,43,0.00,,,0.00,,2013-04-06 15:33:00,
2013-04-06 11:43:00,45.0,24.0,30.31,North,11,1.0,4.0,43,0.00,,,0.00,,2013-04-06 15:43:00,
2013-04-06 11:53:00,45.0,24.0,30.32,North,355,2.0,10.0,43,0.00,,,0.00,,2013-04-06 15:53:00,
2013-04-06 12:05:00,46.0,24.0,30.31,ENE,70,1.0,3.0,41,0.00,,,0.00,,2013-04-06 16:05:00,
2013-04-06 12:17:00,46.0,24.0,30.31,ENE,70,1.0,3.0,41,0.00,,,0.00,,2013-04-06 16:17:00,
2013-04-06 12:23:00,46.0,23.0,30.31,North,5,1.0,5.0,40,0.00,,,0.00,,2013-04-06 16:23:00,
2013-04-06 12:33:00,47.0,25.0,30.31,SSE,166,1.0,6.0,42,0.00,,,0.00,,2013-04-06 16:33:00,
2013-04-06 12:42:00,47.0,25.0,30.31,SSE,166,1.0,6.0,42,0.00,,,0.00,,2013-04-06 16:42:00,
2013-04-06 12:53:00,47.0,24.0,30.30,SSE,156,2.0,6.0,40,0.00,,,0.00,,2013-04-06 16:53:00,
2013-04-06 13:03:00,48.0,26.0,30.30,North,350,0.0,5.0,42,0.00,,,0.00,,2013-04-06 17:03:00,
2013-04-06 13:12:00,48.0,26.0,30.30,North,350,0.0,5.0,42,0.00,,,0.00,,2013-04-06 17:12:00,
2013-04-06 13:22:00,48.0,24.0,30.30,SE,127,2.0,7.0,39,0.00,,,0.00,,2013-04-06 17:22:00,
2013-04-06 13:33:00,49.0,25.0,30.29,East,90,4.0,8.0,38,0.00,,,0.00,,2013-04-06 17:33:00,
2013-04-06 13:42:00,49.0,25.0,30.29,East,90,4.0,8.0,38,0.00,,,0.00,,2013-04-06 17:42:00,
2013-04-06 13:52:00,49.0,25.0,30.29,NW,324,1.0,10.0,38,0.00,,,0.00,,2013-04-06 17:52:00,
2013-04-06 14:03:00,50.0,21.0,30.29,NNW,330,0.0,4.0,31,0.00,,,0.00,,2013-04-06 18:03:00,
2013-04-06 14:12:00,50.0,21.0,30.29,NNW,330,0.0,4.0,31,0.00,,,0.00,,2013-04-06 18:12:00,
2013-04-06 14:24:00,50.0,22.0,30.28,NE,50,2.0,7.0,33,0.00,,,0.00,,2013-04-06 18:24:00,
2013-04-06 14:32:00,51.0,24.0,30.27,ESE,113,4.0,8.0,34,0.00,,,0.00,,2013-04-06 18:32:00,
2013-04-06 14:42:00,51.0,24.0,30.27,ESE,113,4.0,8.0,34,0.00,,,0.00,,2013-04-06 18:42:00,
2013-04-06 14:52:00,51.0,24.0,30.27,SSW,193,1.0,8.0,34,0.00,,,0.00,,2013-04-06 18:52:00,
2013-04-06 15:03:00,52.0,26.0,30.26,ESE,106,5.0,8.0,36,0.00,,,0.00,,2013-04-06 19:03:00,
2013-04-06 15:12:00,52.0,26.0,30.26,ESE,106,5.0,8.0,36,0.00,,,0.00,,2013-04-06 19:12:00,
2013-04-06 15:23:00,52.0,26.0,30.25,ESE,121,3.0,12.0,36,0.00,,,0.00,,2013-04-06 19:23:00,
2013-04-06 15:33:00,53.0,27.0,30.24,East,89,2.0,7.0,37,0.00,,,0.00,,2013-04-06 19:33:00,
2013-04-06 15:42:00,53.0,27.0,30.24,East,89,2.0,7.0,37,0.00,,,0.00,,2013-04-06 19:42:00,
2013-04-06 15:54:00,53.0,27.0,30.24,ESE,102,2.0,7.0,36,0.00,,,0.00,,2013-04-06 19:54:00,
2013-04-06 16:03:00,54.0,25.0,30.23,South,185,2.0,7.0,32,0.00,,,0.00,,2013-04-06 20:03:00,
2013-04-06 16:12:00,54.0,25.0,30.23,South,185,2.0,7.0,32,0.00,,,0.00,,2013-04-06 20:12:00,
2013-04-06 16:23:00,54.0,21.0,30.22,SSW,211,4.0,9.0,27,0.00,,,0.00,,2013-04-06 20:23:00,
2013-04-06 16:32:00,54.0,24.0,30.22,ENE,75,2.0,9.0,31,0.00,,,0.00,,2013-04-06 20:32:00,
2013-04-06 16:42:00,54.0,24.0,30.22,ENE,75,2.0,9.0,31,0.00,,,0.00,,2013-04-06 20:42:00,
2013-04-06 16:53:00,55.0,23.0,30.22,SSW,211,2.0,10.0,29,0.00,,,0.00,,2013-04-06 20:53:00,
2013-04-06 17:02:00,55.0,24.0,30.22,South,176,2.0,5.0,30,0.00,,,0.00,,2013-04-06 21:02:00,
2013-04-06 17:13:00,55.0,20.0,30.22,SW,232,3.0,9.0,25,0.00,,,0.00,,2013-04-06 21:13:00,
2013-04-06 17:22:00,55.0,20.0,30.22,SW,232,3.0,9.0,25,0.00,,,0.00,,2013-04-06 21:22:00,
2013-04-06 17:33:00,55.0,22.0,30.22,South,175,1.0,10.0,27,0.00,,,0.00,,2013-04-06 21:33:00,
2013-04-06 17:43:00,55.0,22.0,30.22,South,175,1.0,10.0,27,0.00,,,0.00,,2013-04-06 21:43:00,
2013-04-06 17:53:00,55.0,22.0,30.22,East,98,2.0,5.0,27,0.00,,,0.00,,2013-04-06 21:53:00,
2013-04-06 18:03:00,55.0,22.0,30.22,ESE,120,2.0,12.0,27,0.00,,,0.00,,2013-04-06 22:03:00,
2013-04-06 18:13:00,55.0,22.0,30.22,ESE,120,2.0,12.0,27,0.00,,,0.00,,2013-04-06 22:13:00,
2013-04-06 18:23:00,55.0,23.0,30.21,ESE,110,2.0,8.0,29,0.00,,,0.00,,2013-04-06 22:23:00,
2013-04-06 18:34:00,55.0,23.0,30.21,South,184,2.0,9.0,28,0.00,,,0.00,,2013-04-06 22:34:00,
2013-04-06 18:43:00,55.0,23.0,30.21,South,184,2.0,9.0,28,0.00,,,0.00,,2013-04-06 22:43:00,
2013-04-06 18:54:00,54.0,23.0,30.21,SSE,150,2.0,8.0,30,0.00,,,0.00,,2013-04-06 22:54:00,
2013-04-06 19:03:00,54.0,22.0,30.21,SE,125,3.0,8.0,29,0.00,,,0.00,,2013-04-06 23:03:00,
2013-04-06 19:14:00,54.0,22.0,30.21,SE,125,3.0,8.0,29,0.00,,,0.00,,2013-04-06 23:14:00,
2013-04-06 19:23:00,53.0,22.0,30.22,ESE,121,1.0,5.0,30,0.00,,,0.00,,2013-04-06 23:23:00,
2013-04-06 19:34:00,53.0,23.0,30.21,SE,137,2.0,5.0,31,0.00,,,0.00,,2013-04-06 23:34:00,
2013-04-06 19:43:00,53.0,23.0,30.21,SE,137,2.0,5.0,31,0.00,,,0.00,,2013-04-06 23:43:00,
2013-04-06 19:53:00,52.0,22.0,30.21,SE,126,0.0,3.0,31,0.00,,,0.00,,2013-04-06 23:53:00,
2013-04-06 20:02:00,51.0,21.0,30.21,SE,142,1.0,3.0,30,0.00,,,0.00,,2013-04-07 00:02:00,
2013-04-06 20:13:00,51.0,21.0,30.21,SE,142,1.0,3.0,30,0.00,,,0.00,,2013-04-07 00:13:00,
2013-04-06 20:22:00,51.0,22.0,30.21,ESE,115,0.0,2.0,32,0.00,,,0.00,,2013-04-07 00:22:00,
2013-04-06 20:33:00,50.0,22.0,30.21,SE,128,0.0,2.0,33,0.00,,,0.00,,2013-04-07 00:33:00,
2013-04-06 20:43:00,50.0,22.0,30.21,SE,128,0.0,2.0,33,0.00,,,0.00,,2013-04-07 00:43:00,
2013-04-06 20:53:00,50.0,23.0,30.21,ESE,107,0.0,3.0,34,0.00,,,0.00,,2013-04-07 00:53:00,
2013-04-06 21:02:00,50.0,23.0,30.21,SSE,150,1.0,5.0,35,0.00,,,0.00,,2013-04-07 01:02:00,
2013-04-06 21:12:00,50.0,23.0,30.21,SSE,150,1.0,5.0,35,0.00,,,0.00,,2013-04-07 01:12:00,
2013-04-06 21:23:00,49.0,23.0,30.22,SE,128,1.0,8.0,35,0.00,,,0.00,,2013-04-07 01:23:00,
2013-04-06 21:33:00,49.0,23.0,30.21,ESE,114,1.0,7.0,35,0.00,,,0.00,,2013-04-07 01:33:00,
2013-04-06 21:43:00,49.0,23.0,30.21,ESE,114,1.0,7.0,35,0.00,,,0.00,,2013-04-07 01:43:00,
2013-04-06 21:53:00,49.0,21.0,30.22,SE,145,2.0,5.0,33,0.00,,,0.00,,2013-04-07 01:53:00,
2013-04-06 22:03:00,49.0,23.0,30.22,ESE,117,2.0,7.0,36,0.00,,,0.00,,2013-04-07 02:03:00,
2013-04-06 22:12:00,49.0,23.0,30.22,ESE,117,2.0,7.0,36,0.00,,,0.00,,2013-04-07 02:12:00,
2013-04-06 22:23:00,49.0,25.0,30.22,ESE,111,3.0,8.0,39,0.00,,,0.00,,2013-04-07 02:23:00,
2013-04-06 22:33:00,48.0,25.0,30.22,SSE,152,2.0,7.0,40,0.00,,,0.00,,2013-04-07 02:33:00,
2013-04-06 22:43:00,48.0,25.0,30.22,SSE,152,2.0,7.0,40,0.00,,,0.00,,2013-04-07 02:43:00,
2013-04-06 22:52:00,48.0,25.0,30.22,ESE,105,2.0,8.0,40,0.00,,,0.00,,2013-04-07 02:52:00,
2013-04-06 23:02:00,47.0,24.0,30.22,SW,231,2.0,9.0,40,0.00,,,0.00,,2013-04-07 03:02:00,
2013-04-06 23:13:00,47.0,24.0,30.22,SW,231,2.0,9.0,40,0.00,,,0.00,,2013-04-07 03:13:00,
2013-04-06 23:22:00,47.0,24.0,30.22,SW,218,3.0,7.0,40,0.00,,,0.00,,2013-04-07 03:22:00,
2013-04-06 23:35:00,46.0,24.0,30.22,SSW,211,1.0,5.0,42,0.00,,,0.00,,2013-04-07 03:35:00,
2013-04-06 23:44:00,46.0,24.0,30.22,SSW,211,1.0,5.0,42,0.00,,,0.00,,2013-04-07 03:44:00,
2013-04-06 23:55:00,46.0,25.0,30.22,South,178,2.0,4.0,43,0.00,,,0.00,,2013-04-07 03:55:00,